sensor_id;sensor_type;location;lat;lon;timestamp;temperature;humidity
66576;SHT31;53428;47.686;16.584;2024-02-21T00:01:42;7.87;77.61
66576;SHT31;53428;47.686;16.584;2024-02-21T00:06:42;7.76;78.04
66576;SHT31;53428;47.686;16.584;2024-02-21T00:11:41;7.73;77.87
66576;SHT31;53428;47.686;16.584;2024-02-21T00:16:40;7.84;77.52
66576;SHT31;53428;47.686;16.584;2024-02-21T00:21:40;7.83;77.29
66576;SHT31;53428;47.686;16.584;2024-02-21T00:26:39;7.91;76.85
66576;SHT31;53428;47.686;16.584;2024-02-21T00:31:38;8.01;76.43
66576;SHT31;53428;47.686;16.584;2024-02-21T00:36:38;7.97;76.65
66576;SHT31;53428;47.686;16.584;2024-02-21T00:41:37;7.98;76.67
66576;SHT31;53428;47.686;16.584;2024-02-21T00:46:36;8.04;76.47
66576;SHT31;53428;47.686;16.584;2024-02-21T00:51:37;8.10;76.26
66576;SHT31;53428;47.686;16.584;2024-02-21T00:56:37;8.10;76.29
66576;SHT31;53428;47.686;16.584;2024-02-21T01:01:36;8.03;76.54
66576;SHT31;53428;47.686;16.584;2024-02-21T01:06:35;8.11;76.28
66576;SHT31;53428;47.686;16.584;2024-02-21T01:11:35;8.03;76.35
66576;SHT31;53428;47.686;16.584;2024-02-21T01:16:34;8.03;76.61
66576;SHT31;53428;47.686;16.584;2024-02-21T01:21:33;7.95;76.98
66576;SHT31;53428;47.686;16.584;2024-02-21T01:26:32;7.90;77.12
66576;SHT31;53428;47.686;16.584;2024-02-21T01:31:31;7.86;77.08
66576;SHT31;53428;47.686;16.584;2024-02-21T01:36:31;7.94;76.83
66576;SHT31;53428;47.686;16.584;2024-02-21T01:41:30;7.90;76.54
66576;SHT31;53428;47.686;16.584;2024-02-21T01:46:30;8.17;74.70
66576;SHT31;53428;47.686;16.584;2024-02-21T01:51:30;8.28;74.17
66576;SHT31;53428;47.686;16.584;2024-02-21T01:56:29;8.28;74.06
66576;SHT31;53428;47.686;16.584;2024-02-21T02:01:29;8.24;74.16
66576;SHT31;53428;47.686;16.584;2024-02-21T02:06:28;8.15;74.54
66576;SHT31;53428;47.686;16.584;2024-02-21T02:11:31;8.05;74.91
66576;SHT31;53428;47.686;16.584;2024-02-21T02:16:31;8.20;74.34
66576;SHT31;53428;47.686;16.584;2024-02-21T02:21:34;8.15;74.58
66576;SHT31;53428;47.686;16.584;2024-02-21T02:26:36;8.31;74.16
66576;SHT31;53428;47.686;16.584;2024-02-21T02:31:36;8.37;74.00
66576;SHT31;53428;47.686;16.584;2024-02-21T02:36:37;8.35;74.10
66576;SHT31;53428;47.686;16.584;2024-02-21T02:41:37;8.27;74.12
66576;SHT31;53428;47.686;16.584;2024-02-21T02:46:36;8.31;74.13
66576;SHT31;53428;47.686;16.584;2024-02-21T02:51:35;8.20;74.35
66576;SHT31;53428;47.686;16.584;2024-02-21T02:56:34;8.24;74.17
66576;SHT31;53428;47.686;16.584;2024-02-21T03:01:34;8.11;74.41
66576;SHT31;53428;47.686;16.584;2024-02-21T03:06:34;7.98;74.89
66576;SHT31;53428;47.686;16.584;2024-02-21T03:11:33;7.98;75.13
66576;SHT31;53428;47.686;16.584;2024-02-21T03:16:32;7.80;75.81
66576;SHT31;53428;47.686;16.584;2024-02-21T03:21:32;7.79;76.09
66576;SHT31;53428;47.686;16.584;2024-02-21T03:26:31;7.69;76.51
66576;SHT31;53428;47.686;16.584;2024-02-21T03:31:30;7.72;76.98
66576;SHT31;53428;47.686;16.584;2024-02-21T03:36:29;7.70;77.39
66576;SHT31;53428;47.686;16.584;2024-02-21T03:41:29;7.83;75.81
66576;SHT31;53428;47.686;16.584;2024-02-21T03:46:28;7.94;75.78
66576;SHT31;53428;47.686;16.584;2024-02-21T03:51:27;8.22;74.75
66576;SHT31;53428;47.686;16.584;2024-02-21T03:56:26;8.46;74.06
66576;SHT31;53428;47.686;16.584;2024-02-21T04:01:26;8.45;73.88
66576;SHT31;53428;47.686;16.584;2024-02-21T04:06:25;8.41;73.99
66576;SHT31;53428;47.686;16.584;2024-02-21T04:11:24;8.30;74.47
66576;SHT31;53428;47.686;16.584;2024-02-21T04:16:24;8.07;75.62
66576;SHT31;53428;47.686;16.584;2024-02-21T04:21:23;8.00;75.94
66576;SHT31;53428;47.686;16.584;2024-02-21T04:26:22;7.94;76.58
66576;SHT31;53428;47.686;16.584;2024-02-21T04:31:22;7.90;77.04
66576;SHT31;53428;47.686;16.584;2024-02-21T04:36:21;7.80;77.06
66576;SHT31;53428;47.686;16.584;2024-02-21T04:41:20;7.76;76.82
66576;SHT31;53428;47.686;16.584;2024-02-21T04:46:19;7.80;76.76
66576;SHT31;53428;47.686;16.584;2024-02-21T04:51:19;7.76;77.44
66576;SHT31;53428;47.686;16.584;2024-02-21T04:56:18;7.65;77.88
66576;SHT31;53428;47.686;16.584;2024-02-21T05:01:17;7.53;78.44
66576;SHT31;53428;47.686;16.584;2024-02-21T05:06:16;7.45;78.80
66576;SHT31;53428;47.686;16.584;2024-02-21T05:11:15;7.25;79.72
66576;SHT31;53428;47.686;16.584;2024-02-21T05:16:15;7.11;80.31
66576;SHT31;53428;47.686;16.584;2024-02-21T05:21:14;7.07;80.58
66576;SHT31;53428;47.686;16.584;2024-02-21T05:26:28;7.04;80.82
66576;SHT31;53428;47.686;16.584;2024-02-21T05:31:54;7.00;81.04
66576;SHT31;53428;47.686;16.584;2024-02-21T05:36:55;7.04;81.30
66576;SHT31;53428;47.686;16.584;2024-02-21T05:41:56;7.09;81.26
66576;SHT31;53428;47.686;16.584;2024-02-21T05:46:55;7.25;80.90
66576;SHT31;53428;47.686;16.584;2024-02-21T05:51:55;7.34;80.67
66576;SHT31;53428;47.686;16.584;2024-02-21T05:56:54;7.34;80.62
66576;SHT31;53428;47.686;16.584;2024-02-21T06:01:57;7.26;80.78
66576;SHT31;53428;47.686;16.584;2024-02-21T06:07:02;7.34;80.67
66576;SHT31;53428;47.686;16.584;2024-02-21T06:12:01;7.41;80.66
66576;SHT31;53428;47.686;16.584;2024-02-21T06:17:00;7.58;80.32
66576;SHT31;53428;47.686;16.584;2024-02-21T06:22:00;7.48;80.42
66576;SHT31;53428;47.686;16.584;2024-02-21T06:26:59;7.52;80.64
66576;SHT31;53428;47.686;16.584;2024-02-21T06:31:59;7.52;80.62
66576;SHT31;53428;47.686;16.584;2024-02-21T06:36:59;7.53;80.67
66576;SHT31;53428;47.686;16.584;2024-02-21T06:41:58;7.49;81.07
66576;SHT31;53428;47.686;16.584;2024-02-21T06:46:57;7.56;81.27
66576;SHT31;53428;47.686;16.584;2024-02-21T06:51:57;7.66;81.23
66576;SHT31;53428;47.686;16.584;2024-02-21T06:56:56;7.83;80.50
66576;SHT31;53428;47.686;16.584;2024-02-21T07:01:56;8.07;79.65
66576;SHT31;53428;47.686;16.584;2024-02-21T07:06:55;8.39;79.56
66576;SHT31;53428;47.686;16.584;2024-02-21T07:11:54;8.63;78.78
66576;SHT31;53428;47.686;16.584;2024-02-21T07:16:55;8.96;78.36
66576;SHT31;53428;47.686;16.584;2024-02-21T07:21:56;9.38;75.79
66576;SHT31;53428;47.686;16.584;2024-02-21T07:26:55;9.68;74.38
66576;SHT31;53428;47.686;16.584;2024-02-21T07:31:55;9.78;74.15
66576;SHT31;53428;47.686;16.584;2024-02-21T07:37:12;10.17;73.35
66576;SHT31;53428;47.686;16.584;2024-02-21T07:42:30;10.24;72.48
66576;SHT31;53428;47.686;16.584;2024-02-21T07:47:48;10.44;72.08
66576;SHT31;53428;47.686;16.584;2024-02-21T07:53:06;10.18;70.21
66576;SHT31;53428;47.686;16.584;2024-02-21T07:58:24;10.18;69.36
66576;SHT31;53428;47.686;16.584;2024-02-21T08:03:42;10.40;69.87
66576;SHT31;53428;47.686;16.584;2024-02-21T08:09:00;10.00;70.02
66576;SHT31;53428;47.686;16.584;2024-02-21T08:14:18;9.90;69.40
66576;SHT31;53428;47.686;16.584;2024-02-21T08:19:17;9.78;69.61
66576;SHT31;53428;47.686;16.584;2024-02-21T08:24:17;9.78;69.12
66576;SHT31;53428;47.686;16.584;2024-02-21T08:29:16;9.72;68.35
66576;SHT31;53428;47.686;16.584;2024-02-21T08:34:15;9.65;68.61
66576;SHT31;53428;47.686;16.584;2024-02-21T08:39:14;9.85;67.48
66576;SHT31;53428;47.686;16.584;2024-02-21T08:44:15;10.14;66.71
66576;SHT31;53428;47.686;16.584;2024-02-21T08:49:15;10.52;65.41
66576;SHT31;53428;47.686;16.584;2024-02-21T08:54:14;10.93;63.64
66576;SHT31;53428;47.686;16.584;2024-02-21T08:59:13;11.41;62.64
66576;SHT31;53428;47.686;16.584;2024-02-21T09:04:14;11.61;61.77
66576;SHT31;53428;47.686;16.584;2024-02-21T09:09:13;11.78;61.51
66576;SHT31;53428;47.686;16.584;2024-02-21T09:14:12;12.05;60.65
66576;SHT31;53428;47.686;16.584;2024-02-21T09:19:12;12.14;60.25
66576;SHT31;53428;47.686;16.584;2024-02-21T09:24:11;12.56;59.37
66576;SHT31;53428;47.686;16.584;2024-02-21T09:29:10;12.39;59.99
66576;SHT31;53428;47.686;16.584;2024-02-21T09:34:10;12.63;59.76
66576;SHT31;53428;47.686;16.584;2024-02-21T09:39:10;12.40;59.10
66576;SHT31;53428;47.686;16.584;2024-02-21T09:44:13;12.50;58.99
66576;SHT31;53428;47.686;16.584;2024-02-21T09:49:34;12.80;58.86
66576;SHT31;53428;47.686;16.584;2024-02-21T09:54:36;13.21;58.43
66576;SHT31;53428;47.686;16.584;2024-02-21T09:59:36;13.63;58.60
66576;SHT31;53428;47.686;16.584;2024-02-21T10:04:36;13.05;58.59
66576;SHT31;53428;47.686;16.584;2024-02-21T10:09:35;13.35;57.75
66576;SHT31;53428;47.686;16.584;2024-02-21T10:14:35;13.69;57.67
66576;SHT31;53428;47.686;16.584;2024-02-21T10:19:35;13.23;58.12
66576;SHT31;53428;47.686;16.584;2024-02-21T10:24:35;13.32;58.31
66576;SHT31;53428;47.686;16.584;2024-02-21T10:29:38;13.32;57.89
66576;SHT31;53428;47.686;16.584;2024-02-21T10:34:38;13.59;57.14
66576;SHT31;53428;47.686;16.584;2024-02-21T10:39:39;13.74;57.47
66576;SHT31;53428;47.686;16.584;2024-02-21T10:44:39;13.56;57.74
66576;SHT31;53428;47.686;16.584;2024-02-21T10:49:40;14.20;56.28
66576;SHT31;53428;47.686;16.584;2024-02-21T10:59:40;14.59;55.03
66576;SHT31;53428;47.686;16.584;2024-02-21T11:04:40;14.90;54.22
66576;SHT31;53428;47.686;16.584;2024-02-21T11:09:39;14.96;54.86
66576;SHT31;53428;47.686;16.584;2024-02-21T11:14:39;14.13;55.61
66576;SHT31;53428;47.686;16.584;2024-02-21T11:19:38;13.73;55.93
66576;SHT31;53428;47.686;16.584;2024-02-21T11:24:37;13.83;56.08
66576;SHT31;53428;47.686;16.584;2024-02-21T11:29:45;14.25;54.50
66576;SHT31;53428;47.686;16.584;2024-02-21T11:34:57;14.52;54.18
66576;SHT31;53428;47.686;16.584;2024-02-21T11:40:04;15.66;52.00
66576;SHT31;53428;47.686;16.584;2024-02-21T11:45:06;15.65;52.58
66576;SHT31;53428;47.686;16.584;2024-02-21T11:50:09;18.26;47.71
66576;SHT31;53428;47.686;16.584;2024-02-21T11:55:09;19.31;46.49
66576;SHT31;53428;47.686;16.584;2024-02-21T12:00:16;18.77;47.41
66576;SHT31;53428;47.686;16.584;2024-02-21T12:05:16;18.61;46.69
66576;SHT31;53428;47.686;16.584;2024-02-21T12:10:15;18.13;47.64
66576;SHT31;53428;47.686;16.584;2024-02-21T12:15:14;16.43;50.10
66576;SHT31;53428;47.686;16.584;2024-02-21T12:20:14;16.74;49.25
66576;SHT31;53428;47.686;16.584;2024-02-21T12:25:21;18.80;46.37
66576;SHT31;53428;47.686;16.584;2024-02-21T12:30:25;18.85;45.41
66576;SHT31;53428;47.686;16.584;2024-02-21T12:35:25;16.00;50.50
66576;SHT31;53428;47.686;16.584;2024-02-21T12:40:25;15.47;50.92
66576;SHT31;53428;47.686;16.584;2024-02-21T12:45:25;15.59;51.01
66576;SHT31;53428;47.686;16.584;2024-02-21T12:50:24;15.88;51.02
66576;SHT31;53428;47.686;16.584;2024-02-21T12:55:23;15.32;52.51
66576;SHT31;53428;47.686;16.584;2024-02-21T13:00:22;14.79;53.08
66576;SHT31;53428;47.686;16.584;2024-02-21T13:05:25;15.10;52.77
66576;SHT31;53428;47.686;16.584;2024-02-21T13:10:25;15.02;52.66
66576;SHT31;53428;47.686;16.584;2024-02-21T13:15:24;14.69;52.89
66576;SHT31;53428;47.686;16.584;2024-02-21T13:20:25;14.89;52.54
66576;SHT31;53428;47.686;16.584;2024-02-21T13:25:24;14.82;53.39
66576;SHT31;53428;47.686;16.584;2024-02-21T13:30:23;14.54;53.56
66576;SHT31;53428;47.686;16.584;2024-02-21T13:35:24;14.52;53.99
66576;SHT31;53428;47.686;16.584;2024-02-21T13:40:24;14.41;53.56
66576;SHT31;53428;47.686;16.584;2024-02-21T13:45:24;14.58;53.60
66576;SHT31;53428;47.686;16.584;2024-02-21T13:50:29;14.38;54.27
66576;SHT31;53428;47.686;16.584;2024-02-21T13:55:29;14.25;54.75
66576;SHT31;53428;47.686;16.584;2024-02-21T14:00:28;14.35;54.10
66576;SHT31;53428;47.686;16.584;2024-02-21T14:05:27;14.24;54.23
66576;SHT31;53428;47.686;16.584;2024-02-21T14:10:27;14.11;54.93
66576;SHT31;53428;47.686;16.584;2024-02-21T14:15:27;13.94;55.67
66576;SHT31;53428;47.686;16.584;2024-02-21T14:20:26;13.91;55.57
66576;SHT31;53428;47.686;16.584;2024-02-21T14:25:25;13.63;56.20
66576;SHT31;53428;47.686;16.584;2024-02-21T14:30:25;13.48;56.17
66576;SHT31;53428;47.686;16.584;2024-02-21T14:35:24;13.65;56.57
66576;SHT31;53428;47.686;16.584;2024-02-21T14:40:23;13.63;56.74
66576;SHT31;53428;47.686;16.584;2024-02-21T14:45:23;13.35;56.96
66576;SHT31;53428;47.686;16.584;2024-02-21T14:50:22;13.18;57.33
66576;SHT31;53428;47.686;16.584;2024-02-21T14:55:22;13.40;55.70
66576;SHT31;53428;47.686;16.584;2024-02-21T15:00:22;13.58;55.74
66576;SHT31;53428;47.686;16.584;2024-02-21T15:05:28;13.70;55.21
66576;SHT31;53428;47.686;16.584;2024-02-21T15:10:28;13.62;55.05
66576;SHT31;53428;47.686;16.584;2024-02-21T15:15:27;13.50;55.77
66576;SHT31;53428;47.686;16.584;2024-02-21T15:20:26;13.32;55.84
66576;SHT31;53428;47.686;16.584;2024-02-21T15:25:27;13.16;55.96
66576;SHT31;53428;47.686;16.584;2024-02-21T15:30:26;13.02;55.69
66576;SHT31;53428;47.686;16.584;2024-02-21T15:35:30;12.76;56.86
66576;SHT31;53428;47.686;16.584;2024-02-21T15:40:30;12.49;57.21
66576;SHT31;53428;47.686;16.584;2024-02-21T15:45:29;12.26;58.05
66576;SHT31;53428;47.686;16.584;2024-02-21T15:50:28;12.09;58.56
66576;SHT31;53428;47.686;16.584;2024-02-21T15:55:28;11.91;58.91
66576;SHT31;53428;47.686;16.584;2024-02-21T16:00:27;11.84;58.84
66576;SHT31;53428;47.686;16.584;2024-02-21T16:05:27;11.74;58.99
66576;SHT31;53428;47.686;16.584;2024-02-21T16:10:26;11.61;59.01
66576;SHT31;53428;47.686;16.584;2024-02-21T16:15:26;11.37;59.86
66576;SHT31;53428;47.686;16.584;2024-02-21T16:20:25;11.13;60.63
66576;SHT31;53428;47.686;16.584;2024-02-21T16:25:24;10.81;61.34
66576;SHT31;53428;47.686;16.584;2024-02-21T16:30:23;10.31;62.69
66576;SHT31;53428;47.686;16.584;2024-02-21T16:35:23;10.10;63.39
66576;SHT31;53428;47.686;16.584;2024-02-21T16:40:22;9.97;64.50
66576;SHT31;53428;47.686;16.584;2024-02-21T16:45:22;9.68;65.46
66576;SHT31;53428;47.686;16.584;2024-02-21T16:50:21;9.39;66.17
66576;SHT31;53428;47.686;16.584;2024-02-21T16:55:20;9.34;66.38
66576;SHT31;53428;47.686;16.584;2024-02-21T17:00:21;9.13;66.50
66576;SHT31;53428;47.686;16.584;2024-02-21T17:05:21;9.00;67.16
66576;SHT31;53428;47.686;16.584;2024-02-21T17:10:23;8.84;68.09
66576;SHT31;53428;47.686;16.584;2024-02-21T17:15:22;8.70;67.91
66576;SHT31;53428;47.686;16.584;2024-02-21T17:20:22;8.83;66.56
66576;SHT31;53428;47.686;16.584;2024-02-21T17:25:21;9.20;66.10
66576;SHT31;53428;47.686;16.584;2024-02-21T17:30:20;8.87;66.81
66576;SHT31;53428;47.686;16.584;2024-02-21T17:35:19;8.59;67.26
66576;SHT31;53428;47.686;16.584;2024-02-21T17:40:18;8.87;66.88
66576;SHT31;53428;47.686;16.584;2024-02-21T17:45:18;9.30;65.24
66576;SHT31;53428;47.686;16.584;2024-02-21T17:50:17;9.03;65.63
66576;SHT31;53428;47.686;16.584;2024-02-21T17:55:17;9.17;65.50
66576;SHT31;53428;47.686;16.584;2024-02-21T18:00:17;9.28;64.81
66576;SHT31;53428;47.686;16.584;2024-02-21T18:05:16;9.31;65.14
66576;SHT31;53428;47.686;16.584;2024-02-21T18:10:16;9.66;64.41
66576;SHT31;53428;47.686;16.584;2024-02-21T18:15:15;9.72;64.55
66576;SHT31;53428;47.686;16.584;2024-02-21T18:20:14;9.39;64.96
66576;SHT31;53428;47.686;16.584;2024-02-21T18:25:13;8.87;66.45
66576;SHT31;53428;47.686;16.584;2024-02-21T18:30:13;8.83;66.84
66576;SHT31;53428;47.686;16.584;2024-02-21T18:35:14;9.06;66.88
66576;SHT31;53428;47.686;16.584;2024-02-21T18:40:13;9.11;66.68
66576;SHT31;53428;47.686;16.584;2024-02-21T18:45:14;8.99;67.53
66576;SHT31;53428;47.686;16.584;2024-02-21T18:50:17;8.48;68.41
66576;SHT31;53428;47.686;16.584;2024-02-21T18:55:16;8.51;68.90
66576;SHT31;53428;47.686;16.584;2024-02-21T19:00:16;8.70;68.92
66576;SHT31;53428;47.686;16.584;2024-02-21T19:05:21;8.46;69.37
66576;SHT31;53428;47.686;16.584;2024-02-21T19:10:21;9.13;68.82
66576;SHT31;53428;47.686;16.584;2024-02-21T19:15:20;9.83;67.33
66576;SHT31;53428;47.686;16.584;2024-02-21T19:20:20;9.87;67.44
66576;SHT31;53428;47.686;16.584;2024-02-21T19:25:19;9.71;67.65
66576;SHT31;53428;47.686;16.584;2024-02-21T19:30:20;9.95;67.18
66576;SHT31;53428;47.686;16.584;2024-02-21T19:35:21;10.10;66.99
66576;SHT31;53428;47.686;16.584;2024-02-21T19:40:20;10.18;66.64
66576;SHT31;53428;47.686;16.584;2024-02-21T19:45:22;10.16;66.62
66576;SHT31;53428;47.686;16.584;2024-02-21T19:50:21;10.37;66.33
66576;SHT31;53428;47.686;16.584;2024-02-21T19:55:21;10.17;66.60
66576;SHT31;53428;47.686;16.584;2024-02-21T20:00:21;10.23;66.58
66576;SHT31;53428;47.686;16.584;2024-02-21T20:05:20;10.14;66.97
66576;SHT31;53428;47.686;16.584;2024-02-21T20:10:20;10.17;67.11
66576;SHT31;53428;47.686;16.584;2024-02-21T20:15:20;10.10;67.26
66576;SHT31;53428;47.686;16.584;2024-02-21T20:20:20;9.93;67.71
66576;SHT31;53428;47.686;16.584;2024-02-21T20:25:21;9.93;67.95
66576;SHT31;53428;47.686;16.584;2024-02-21T20:30:20;9.96;68.27
66576;SHT31;53428;47.686;16.584;2024-02-21T20:35:19;9.96;68.49
66576;SHT31;53428;47.686;16.584;2024-02-21T20:40:19;10.09;68.54
66576;SHT31;53428;47.686;16.584;2024-02-21T20:45:18;10.24;68.17
66576;SHT31;53428;47.686;16.584;2024-02-21T20:50:17;10.13;68.45
66576;SHT31;53428;47.686;16.584;2024-02-21T20:55:18;10.20;68.44
66576;SHT31;53428;47.686;16.584;2024-02-21T21:00:23;10.02;68.80
66576;SHT31;53428;47.686;16.584;2024-02-21T21:05:22;9.87;69.21
66576;SHT31;53428;47.686;16.584;2024-02-21T21:10:23;9.83;69.60
66576;SHT31;53428;47.686;16.584;2024-02-21T21:15:22;10.07;69.21
66576;SHT31;53428;47.686;16.584;2024-02-21T21:20:22;10.12;69.23
66576;SHT31;53428;47.686;16.584;2024-02-21T21:25:25;10.16;68.98
66576;SHT31;53428;47.686;16.584;2024-02-21T21:30:24;10.10;69.30
66576;SHT31;53428;47.686;16.584;2024-02-21T21:35:24;10.12;69.30
66576;SHT31;53428;47.686;16.584;2024-02-21T21:40:25;10.06;69.46
66576;SHT31;53428;47.686;16.584;2024-02-21T21:45:25;9.97;69.66
66576;SHT31;53428;47.686;16.584;2024-02-21T21:50:26;9.79;70.15
66576;SHT31;53428;47.686;16.584;2024-02-21T21:55:25;9.54;70.94
66576;SHT31;53428;47.686;16.584;2024-02-21T22:00:24;9.45;71.35
66576;SHT31;53428;47.686;16.584;2024-02-21T22:05:23;9.37;71.72
66576;SHT31;53428;47.686;16.584;2024-02-21T22:10:22;8.99;73.13
66576;SHT31;53428;47.686;16.584;2024-02-21T22:15:22;9.03;73.19
66576;SHT31;53428;47.686;16.584;2024-02-21T22:20:22;8.63;74.11
66576;SHT31;53428;47.686;16.584;2024-02-21T22:25:24;8.46;74.64
66576;SHT31;53428;47.686;16.584;2024-02-21T22:30:24;8.41;74.87
66576;SHT31;53428;47.686;16.584;2024-02-21T22:35:24;8.52;74.73
66576;SHT31;53428;47.686;16.584;2024-02-21T22:40:23;8.79;73.51
66576;SHT31;53428;47.686;16.584;2024-02-21T22:45:23;8.79;73.46
66576;SHT31;53428;47.686;16.584;2024-02-21T22:50:22;8.91;72.95
66576;SHT31;53428;47.686;16.584;2024-02-21T22:55:21;8.81;73.11
66576;SHT31;53428;47.686;16.584;2024-02-21T23:00:20;8.80;73.38
66576;SHT31;53428;47.686;16.584;2024-02-21T23:05:20;8.80;73.54
66576;SHT31;53428;47.686;16.584;2024-02-21T23:10:22;8.62;74.12
66576;SHT31;53428;47.686;16.584;2024-02-21T23:15:24;8.56;74.39
66576;SHT31;53428;47.686;16.584;2024-02-21T23:20:24;8.44;74.93
66576;SHT31;53428;47.686;16.584;2024-02-21T23:25:23;8.34;75.07
66576;SHT31;53428;47.686;16.584;2024-02-21T23:30:23;8.41;74.86
66576;SHT31;53428;47.686;16.584;2024-02-21T23:35:22;8.41;75.12
66576;SHT31;53428;47.686;16.584;2024-02-21T23:40:23;8.35;75.31
66576;SHT31;53428;47.686;16.584;2024-02-21T23:45:22;8.49;75.22
66576;SHT31;53428;47.686;16.584;2024-02-21T23:50:21;8.44;75.33
66576;SHT31;53428;47.686;16.584;2024-02-21T23:55:20;8.46;75.00
